createdAt,value
2019-05-05T00:01:40.676Z,99.90
2019-05-05T00:04:34.740Z,99.90
2019-05-05T00:07:04.648Z,99.90
2019-05-05T00:09:34.917Z,99.90
2019-05-05T00:12:37.502Z,99.90
2019-05-05T00:15:27.305Z,99.90
2019-05-05T00:17:57.488Z,99.90
2019-05-05T00:20:27.630Z,99.90
2019-05-05T00:22:57.874Z,99.90
2019-05-05T00:25:28.034Z,99.90
2019-05-05T00:27:58.352Z,99.90
2019-05-05T00:30:28.460Z,99.90
2019-05-05T00:32:58.722Z,99.90
2019-05-05T00:35:28.898Z,99.90
2019-05-05T00:37:59.068Z,99.90
2019-05-05T00:40:29.273Z,99.90
2019-05-05T00:42:59.387Z,99.90
2019-05-05T00:45:30.465Z,99.90
2019-05-05T00:48:07.069Z,99.90
2019-05-05T00:50:37.429Z,99.90
2019-05-05T00:53:07.441Z,99.90
2019-05-05T00:55:37.484Z,99.90
2019-05-05T00:58:07.654Z,99.90
2019-05-05T01:00:51.562Z,99.90
2019-05-05T01:03:24.303Z,99.90
2019-05-05T01:06:19.578Z,99.90
2019-05-05T01:08:49.678Z,99.90
2019-05-05T01:11:20.860Z,99.90
2019-05-05T01:13:50.901Z,99.90
2019-05-05T01:16:21.040Z,99.90
2019-05-05T01:18:51.115Z,99.90
2019-05-05T01:21:21.191Z,99.90
2019-05-05T01:23:51.554Z,99.90
2019-05-05T01:26:21.661Z,99.90
2019-05-05T01:28:52.067Z,99.90
2019-05-05T01:31:22.599Z,99.90
2019-05-05T01:34:07.439Z,99.90
2019-05-05T01:36:37.590Z,99.90
2019-05-05T01:39:35.465Z,99.90
2019-05-05T01:42:11.728Z,99.90
2019-05-05T01:44:41.938Z,99.90
2019-05-05T01:47:12.055Z,99.90
2019-05-05T01:49:42.109Z,99.90
2019-05-05T01:52:12.155Z,99.90
2019-05-05T01:54:44.460Z,99.90
2019-05-05T01:57:14.971Z,99.90
2019-05-05T01:59:45.470Z,99.90
2019-05-05T02:02:15.609Z,99.90
2019-05-05T02:04:45.864Z,99.90
2019-05-05T02:07:16.010Z,99.90
2019-05-05T02:09:46.034Z,99.90
2019-05-05T02:12:16.152Z,99.90
2019-05-05T02:14:46.311Z,99.90
2019-05-05T02:17:16.363Z,99.90
2019-05-05T02:19:46.526Z,99.90
2019-05-05T02:22:16.765Z,99.90
2019-05-05T02:24:47.104Z,99.90
2019-05-05T02:27:19.684Z,99.90
2019-05-05T02:30:16.147Z,99.90
2019-05-05T02:32:52.043Z,99.90
2019-05-05T02:35:22.180Z,99.90
2019-05-05T02:37:52.272Z,99.90
2019-05-05T02:40:24.485Z,99.90
2019-05-05T02:42:55.113Z,99.90
2019-05-05T02:46:17.932Z,99.90
2019-05-05T02:48:50.595Z,99.90
2019-05-05T02:51:25.738Z,99.90
2019-05-05T02:53:57.315Z,99.90
2019-05-05T02:56:34.211Z,99.90
2019-05-05T02:59:07.722Z,99.90
2019-05-05T03:01:44.630Z,99.90
2019-05-05T03:04:14.697Z,99.90
2019-05-05T03:06:49.337Z,99.90
2019-05-05T03:09:21.056Z,99.90
2019-05-05T03:11:54.700Z,99.90
2019-05-05T03:14:26.932Z,99.90
2019-05-05T03:16:57.286Z,99.90
2019-05-05T03:19:27.881Z,99.90
2019-05-05T03:21:59.140Z,99.90
2019-05-05T03:24:29.858Z,99.90
2019-05-05T03:27:00.454Z,99.90
2019-05-05T03:29:30.724Z,99.90
2019-05-05T03:32:00.974Z,99.90
2019-05-05T03:34:31.425Z,99.90
2019-05-05T03:37:04.094Z,99.90
2019-05-05T03:39:34.637Z,99.90
2019-05-05T03:42:14.061Z,99.90
2019-05-05T03:45:14.381Z,99.90
2019-05-05T03:47:44.140Z,99.90
2019-05-05T03:50:14.732Z,99.90
2019-05-05T03:52:45.819Z,99.90
2019-05-05T03:55:15.858Z,99.90
2019-05-05T03:57:46.186Z,99.90
2019-05-05T04:00:25.868Z,99.90
2019-05-05T04:03:00.646Z,99.90
2019-05-05T04:05:34.761Z,99.90
2019-05-05T04:08:04.807Z,99.90
2019-05-05T04:10:35.086Z,99.90
2019-05-05T04:13:05.119Z,99.90
2019-05-05T04:15:36.441Z,99.90
2019-05-05T04:18:27.931Z,99.90
2019-05-05T04:20:58.150Z,99.90
2019-05-05T04:23:29.105Z,99.90
2019-05-05T04:25:59.164Z,99.90
2019-05-05T04:28:29.226Z,99.90
2019-05-05T04:30:59.440Z,99.90
2019-05-05T04:33:29.538Z,99.90
2019-05-05T04:35:59.723Z,99.90
2019-05-05T04:38:29.838Z,99.90
2019-05-05T04:41:00.057Z,99.90
2019-05-05T04:43:30.199Z,99.90
2019-05-05T04:46:00.332Z,99.90
2019-05-05T04:48:45.599Z,99.90
2019-05-05T04:51:24.372Z,99.90
2019-05-05T04:54:10.493Z,99.90
2019-05-05T04:56:40.518Z,99.90
2019-05-05T04:59:10.642Z,99.90
2019-05-05T05:01:41.075Z,99.90
2019-05-05T05:04:28.820Z,99.90
2019-05-05T05:06:59.397Z,99.90
2019-05-05T05:09:29.445Z,99.90
2019-05-05T05:11:59.516Z,99.90
2019-05-05T05:14:29.583Z,99.90
2019-05-05T05:17:03.388Z,99.90
2019-05-05T05:19:33.574Z,99.90
2019-05-05T05:22:04.934Z,99.90
2019-05-05T05:24:35.133Z,99.90
2019-05-05T05:27:05.214Z,99.90
2019-05-05T05:29:35.404Z,99.90
2019-05-05T05:32:05.456Z,99.90
2019-05-05T05:34:35.888Z,99.90
2019-05-05T05:37:05.983Z,99.90
2019-05-05T05:40:01.410Z,99.90
2019-05-05T05:42:33.456Z,99.90
2019-05-05T05:45:14.631Z,99.90
2019-05-05T05:48:14.692Z,99.90
2019-05-05T05:50:50.645Z,99.90
2019-05-05T05:53:20.778Z,99.90
2019-05-05T05:55:50.825Z,99.90
2019-05-05T05:58:20.967Z,99.90
2019-05-05T06:00:51.436Z,99.90
2019-05-05T06:03:21.619Z,99.90
2019-05-05T06:05:53.883Z,99.90
2019-05-05T06:08:24.317Z,99.90
2019-05-05T06:10:54.900Z,99.90
2019-05-05T06:13:25.218Z,99.90
2019-05-05T06:15:55.417Z,99.90
2019-05-05T06:18:25.659Z,99.90
2019-05-05T06:20:55.863Z,99.90
2019-05-05T06:23:26.004Z,99.90
2019-05-05T06:25:56.073Z,99.90
2019-05-05T06:28:26.187Z,99.90
2019-05-05T06:30:56.306Z,99.90
2019-05-05T06:33:26.576Z,99.90
2019-05-05T06:35:56.698Z,99.90
2019-05-05T06:38:26.766Z,99.90
2019-05-05T06:41:20.165Z,99.90
2019-05-05T06:44:03.753Z,99.90
2019-05-05T06:46:53.743Z,99.90
2019-05-05T06:49:24.398Z,99.90
2019-05-05T06:51:55.718Z,99.90
2019-05-05T06:54:25.867Z,99.90
2019-05-05T06:56:56.002Z,99.90
2019-05-05T06:59:26.162Z,99.90
2019-05-05T07:01:56.386Z,99.90
2019-05-05T07:04:26.577Z,99.90
2019-05-05T07:06:57.418Z,99.90
2019-05-05T07:09:27.654Z,99.90
2019-05-05T07:11:57.951Z,99.90
2019-05-05T07:14:28.013Z,99.90
2019-05-05T07:16:58.332Z,99.90
2019-05-05T07:19:28.565Z,99.90
2019-05-05T07:21:58.617Z,99.90
2019-05-05T07:24:28.849Z,99.90
2019-05-05T07:26:58.983Z,99.90
2019-05-05T07:29:29.137Z,99.90
2019-05-05T07:31:59.266Z,99.90
2019-05-05T07:34:48.024Z,99.90
2019-05-05T07:37:18.113Z,99.90
2019-05-05T07:39:48.206Z,99.90
2019-05-05T07:42:18.270Z,99.90
2019-05-05T07:44:48.337Z,99.90
2019-05-05T07:47:18.542Z,99.90
2019-05-05T07:49:48.665Z,99.90
2019-05-05T07:52:18.776Z,99.90
2019-05-05T07:54:49.014Z,99.90
2019-05-05T07:57:19.055Z,99.90
2019-05-05T07:59:49.209Z,99.90
2019-05-05T08:02:19.447Z,99.90
2019-05-05T08:04:49.527Z,99.90
2019-05-05T08:07:19.690Z,99.90
2019-05-05T08:09:53.736Z,99.90
2019-05-05T08:12:24.988Z,99.90
2019-05-05T08:14:55.441Z,99.90
2019-05-05T08:17:44.738Z,99.90
2019-05-05T08:20:24.260Z,99.90
2019-05-05T08:22:54.416Z,99.90
2019-05-05T08:25:39.760Z,99.90
2019-05-05T08:28:24.853Z,99.90
2019-05-05T08:31:00.282Z,99.90
2019-05-05T08:33:30.498Z,99.90
2019-05-05T08:36:00.585Z,99.90
2019-05-05T08:38:30.645Z,99.90
2019-05-05T08:41:00.755Z,99.90
2019-05-05T08:43:34.728Z,99.90
2019-05-05T08:46:05.088Z,99.90
2019-05-05T08:48:35.224Z,99.90
2019-05-05T08:51:05.340Z,99.90
2019-05-05T08:53:45.043Z,99.90
2019-05-05T08:56:07.244Z,99.90
2019-05-05T08:58:37.458Z,99.90
2019-05-05T09:01:07.592Z,99.90
2019-05-05T09:03:37.701Z,99.90
2019-05-05T09:06:07.779Z,99.90
2019-05-05T09:08:37.920Z,99.90
2019-05-05T09:11:10.481Z,99.90
2019-05-05T09:13:40.605Z,99.90
2019-05-05T09:16:10.732Z,99.90
2019-05-05T09:18:58.472Z,99.90
2019-05-05T09:21:28.675Z,99.90
2019-05-05T09:24:03.193Z,99.90
2019-05-05T09:26:47.725Z,99.90
2019-05-05T09:29:24.775Z,99.90
2019-05-05T09:31:54.832Z,99.90
2019-05-05T09:34:24.885Z,99.90
2019-05-05T09:36:55.038Z,99.90
2019-05-05T09:39:25.347Z,99.90
2019-05-05T09:41:57.106Z,99.90
2019-05-05T09:44:27.363Z,99.90
2019-05-05T09:46:57.597Z,99.90
2019-05-05T09:49:27.710Z,99.90
2019-05-05T09:51:57.869Z,99.90
2019-05-05T09:54:28.024Z,99.90
2019-05-05T09:56:58.410Z,99.90
2019-05-05T09:59:28.449Z,99.90
2019-05-05T10:01:58.789Z,99.90
2019-05-05T10:04:30.561Z,99.90
2019-05-05T10:07:00.732Z,99.90
2019-05-05T10:09:30.865Z,99.90
2019-05-05T10:12:01.082Z,99.90
2019-05-05T10:14:31.211Z,99.90
2019-05-05T10:17:01.293Z,99.90
2019-05-05T10:19:31.406Z,99.90
2019-05-05T10:22:01.526Z,99.90
2019-05-05T10:24:36.642Z,99.90
2019-05-05T10:27:09.492Z,99.90
2019-05-05T10:29:41.434Z,99.90
2019-05-05T10:32:13.703Z,99.90
2019-05-05T10:34:44.987Z,99.90
2019-05-05T10:37:16.714Z,99.90
2019-05-05T10:39:51.304Z,99.90
2019-05-05T10:42:24.407Z,99.90
2019-05-05T10:44:54.650Z,99.90
2019-05-05T10:47:26.717Z,99.90
2019-05-05T10:49:57.058Z,99.90
2019-05-05T10:52:27.165Z,99.90
2019-05-05T10:54:59.775Z,99.90
2019-05-05T10:57:29.987Z,99.90
2019-05-05T11:00:11.675Z,99.90
2019-05-05T11:02:32.006Z,99.90
2019-05-05T11:05:03.971Z,99.90
2019-05-05T11:07:35.014Z,99.90
2019-05-05T11:10:06.103Z,99.90
2019-05-05T11:12:36.611Z,99.90
2019-05-05T11:15:06.836Z,99.90
2019-05-05T11:17:37.265Z,99.90
2019-05-05T11:20:08.170Z,99.90
2019-05-05T11:22:38.244Z,99.90
2019-05-05T11:25:08.399Z,99.90
2019-05-05T11:27:41.272Z,99.90
2019-05-05T11:30:26.812Z,99.90
2019-05-05T11:33:34.448Z,99.90
2019-05-05T11:36:34.460Z,99.90
2019-05-05T11:39:06.625Z,99.90
2019-05-05T11:41:36.655Z,99.90
2019-05-05T11:44:06.772Z,99.90
2019-05-05T11:46:39.207Z,99.90
2019-05-05T11:49:09.254Z,99.90
2019-05-05T11:51:39.290Z,99.90
2019-05-05T11:54:09.332Z,99.30
2019-05-05T11:56:39.432Z,99.50
2019-05-05T11:59:09.792Z,99.90
2019-05-05T12:01:39.982Z,99.90
2019-05-05T12:04:14.555Z,99.90
2019-05-05T12:06:45.005Z,99.90
2019-05-05T12:09:24.578Z,99.90
2019-05-05T12:11:54.660Z,99.90
2019-05-05T12:14:27.419Z,99.90
2019-05-05T12:16:59.588Z,99.90
2019-05-05T12:19:30.171Z,99.70
2019-05-05T12:22:00.284Z,99.90
2019-05-05T12:24:34.048Z,99.40
2019-05-05T12:27:22.095Z,99.60
2019-05-05T12:29:59.513Z,99.90
2019-05-05T12:32:29.604Z,98.00
2019-05-05T12:34:59.657Z,98.40
2019-05-05T12:37:34.121Z,99.20
2019-05-05T12:40:06.494Z,99.90
2019-05-05T12:42:37.019Z,99.90
2019-05-05T12:45:10.344Z,99.90
2019-05-05T12:47:59.316Z,99.90
2019-05-05T12:50:29.554Z,99.30
2019-05-05T12:53:04.070Z,99.60
2019-05-05T12:55:41.414Z,99.00
2019-05-05T12:58:06.251Z,98.40
2019-05-05T13:00:37.993Z,98.70
2019-05-05T13:03:08.034Z,99.90
2019-05-05T13:05:38.172Z,99.90
2019-05-05T13:08:08.316Z,99.90
2019-05-05T13:10:38.640Z,99.90
2019-05-05T13:13:08.634Z,99.90
2019-05-05T13:15:38.765Z,99.90
2019-05-05T13:18:08.916Z,99.90
2019-05-05T13:20:46.086Z,99.90
2019-05-05T13:23:35.179Z,99.90
2019-05-05T13:26:14.631Z,99.90
2019-05-05T13:28:46.947Z,99.90
2019-05-05T13:31:16.983Z,99.90
2019-05-05T13:33:47.147Z,99.90
2019-05-05T13:36:17.240Z,99.90
2019-05-05T13:38:47.405Z,99.90
2019-05-05T13:41:17.546Z,99.90
2019-05-05T13:43:47.585Z,99.90
2019-05-05T13:46:24.707Z,99.90
2019-05-05T13:48:58.128Z,99.90
2019-05-05T13:51:28.209Z,99.90
2019-05-05T13:53:58.363Z,99.90
2019-05-05T13:56:28.515Z,99.90
2019-05-05T13:58:58.865Z,99.90
2019-05-05T14:01:29.212Z,99.90
2019-05-05T14:03:59.245Z,99.90
2019-05-05T14:06:29.411Z,99.90
2019-05-05T14:08:59.536Z,99.90
2019-05-05T14:11:29.971Z,99.90
2019-05-05T14:14:00.117Z,99.90
2019-05-05T14:16:30.249Z,99.90
2019-05-05T14:19:00.295Z,99.90
2019-05-05T14:21:30.358Z,99.90
2019-05-05T14:24:28.664Z,99.90
2019-05-05T14:26:58.977Z,99.90
2019-05-05T14:29:40.186Z,99.90
2019-05-05T14:32:13.504Z,99.90
2019-05-05T14:34:47.729Z,99.90
2019-05-05T14:37:48.854Z,99.90
2019-05-05T14:40:18.995Z,99.90
2019-05-05T14:42:49.171Z,99.90
2019-05-05T14:45:19.980Z,99.90
2019-05-05T14:47:50.092Z,99.90
2019-05-05T14:50:20.290Z,99.90
2019-05-05T14:52:50.374Z,99.90
2019-05-05T14:55:22.365Z,99.90
2019-05-05T14:57:53.447Z,99.90
2019-05-05T15:00:25.711Z,99.90
2019-05-05T15:02:55.867Z,99.90
2019-05-05T15:05:44.379Z,99.90
2019-05-05T15:08:24.439Z,99.90
2019-05-05T15:11:14.216Z,99.90
2019-05-05T15:13:44.589Z,99.10
2019-05-05T15:16:14.764Z,97.00
2019-05-05T15:18:44.904Z,99.70
2019-05-05T15:21:16.615Z,99.90
2019-05-05T15:23:46.831Z,99.90
2019-05-05T15:26:16.917Z,99.90
2019-05-05T15:28:58.613Z,99.90
2019-05-05T15:31:19.753Z,99.90
2019-05-05T15:33:49.908Z,99.90
2019-05-05T15:36:19.971Z,99.90
2019-05-05T15:38:50.090Z,99.90
2019-05-05T15:41:20.293Z,99.90
2019-05-05T15:43:50.652Z,99.90
2019-05-05T15:46:20.700Z,99.90
2019-05-05T15:48:51.456Z,99.90
2019-05-05T15:51:23.580Z,99.90
2019-05-05T15:53:54.242Z,99.90
2019-05-05T15:56:24.529Z,99.90
2019-05-05T15:58:54.613Z,99.90
2019-05-05T16:01:24.821Z,99.90
2019-05-05T16:03:55.235Z,99.90
2019-05-05T16:06:25.401Z,99.90
2019-05-05T16:08:56.712Z,99.90
2019-05-05T16:11:27.129Z,99.90
2019-05-05T16:14:01.054Z,99.90
2019-05-05T16:16:40.419Z,99.90
2019-05-05T16:19:38.583Z,99.90
2019-05-05T16:22:36.443Z,99.90
2019-05-05T16:25:14.118Z,99.90
2019-05-05T16:27:46.547Z,99.90
2019-05-05T16:30:18.283Z,99.90
2019-05-05T16:32:48.495Z,99.90
2019-05-05T16:35:20.935Z,99.90
2019-05-05T16:37:51.849Z,99.90
2019-05-05T16:40:24.622Z,99.90
2019-05-05T16:42:56.264Z,99.90
2019-05-05T16:45:26.605Z,99.90
2019-05-05T16:47:56.796Z,99.80
2019-05-05T16:50:26.843Z,99.50
2019-05-05T16:53:03.973Z,99.70
2019-05-05T16:55:39.810Z,99.00
2019-05-05T16:58:10.820Z,98.40
2019-05-05T17:00:41.159Z,97.70
2019-05-05T17:03:13.349Z,98.00
2019-05-05T17:05:44.060Z,97.70
2019-05-05T17:08:15.370Z,98.90
2019-05-05T17:10:45.714Z,98.70
2019-05-05T17:13:24.138Z,98.70
2019-05-05T17:16:14.623Z,97.20
2019-05-05T17:18:54.251Z,97.00
2019-05-05T17:21:29.552Z,97.60
2019-05-05T17:24:00.870Z,96.30
2019-05-05T17:26:32.116Z,95.20
2019-05-05T17:29:03.753Z,96.50
2019-05-05T17:31:35.235Z,95.40
2019-05-05T17:34:05.617Z,95.00
2019-05-05T17:36:36.391Z,95.40
2019-05-05T17:39:08.996Z,96.60
2019-05-05T17:42:14.220Z,95.20
2019-05-05T17:44:54.052Z,94.80
2019-05-05T17:47:35.223Z,94.30
2019-05-05T17:50:30.172Z,94.50
2019-05-05T17:53:11.358Z,95.50
2019-05-05T17:55:42.202Z,96.50
2019-05-05T17:58:16.264Z,97.00
2019-05-05T18:00:54.559Z,98.70
2019-05-05T18:03:24.701Z,99.70
2019-05-05T18:06:20.104Z,99.90
2019-05-05T18:09:09.746Z,99.90
2019-05-05T18:11:47.459Z,99.90
2019-05-05T18:14:24.132Z,99.90
2019-05-05T18:16:54.384Z,99.90
2019-05-05T18:19:25.982Z,99.90
2019-05-05T18:21:56.021Z,99.90
2019-05-05T18:24:26.118Z,99.90
2019-05-05T18:26:57.165Z,99.90
2019-05-05T18:29:27.645Z,99.90
2019-05-05T18:31:58.261Z,99.90
2019-05-05T18:34:28.846Z,99.90
2019-05-05T18:36:58.981Z,99.90
2019-05-05T18:39:29.212Z,99.90
2019-05-05T18:42:05.761Z,99.90
2019-05-05T18:44:39.224Z,99.90
2019-05-05T18:47:14.785Z,99.90
2019-05-05T18:49:43.728Z,99.90
2019-05-05T18:52:14.050Z,99.90
2019-05-05T18:54:44.402Z,99.90
2019-05-05T18:57:14.661Z,99.90
2019-05-05T18:59:44.975Z,99.90
2019-05-05T19:02:53.619Z,99.90
2019-05-05T19:05:44.205Z,99.90
2019-05-05T19:08:18.392Z,99.90
2019-05-05T19:10:48.448Z,99.90
2019-05-05T19:13:18.588Z,99.90
2019-05-05T19:15:48.703Z,99.90
2019-05-05T19:18:19.057Z,99.90
2019-05-05T19:21:04.310Z,99.90
2019-05-05T19:23:35.696Z,99.90
2019-05-05T19:26:07.787Z,99.90
2019-05-05T19:28:44.238Z,99.90
2019-05-05T19:31:09.983Z,99.90
2019-05-05T19:33:40.084Z,99.90
2019-05-05T19:36:11.486Z,99.90
2019-05-05T19:38:43.982Z,99.90
2019-05-05T19:41:14.455Z,99.90
2019-05-05T19:43:54.817Z,99.90
2019-05-05T19:46:34.548Z,99.90
2019-05-05T19:49:17.447Z,99.90
2019-05-05T19:51:48.489Z,99.90
2019-05-05T19:54:18.732Z,99.90
2019-05-05T19:56:48.881Z,99.90
2019-05-05T19:59:20.746Z,99.90
2019-05-05T20:01:53.979Z,99.90
2019-05-05T20:04:24.313Z,99.90
2019-05-05T20:06:54.908Z,99.90
2019-05-05T20:09:25.273Z,99.90
2019-05-05T20:11:55.584Z,99.90
2019-05-05T20:14:44.919Z,99.90
2019-05-05T20:17:34.218Z,99.90
2019-05-05T20:20:05.727Z,99.90
2019-05-05T20:22:36.014Z,99.90
2019-05-05T20:25:07.205Z,99.90
2019-05-05T20:27:37.283Z,99.90
2019-05-05T20:30:07.840Z,99.90
2019-05-05T20:32:44.502Z,99.90
2019-05-05T20:35:21.138Z,99.90
2019-05-05T20:37:59.438Z,99.90
2019-05-05T20:40:32.345Z,99.90
2019-05-05T20:43:04.031Z,99.90
2019-05-05T20:45:35.500Z,99.90
2019-05-05T20:48:05.647Z,99.90
2019-05-05T20:50:35.802Z,99.90
2019-05-05T20:53:06.001Z,99.90
2019-05-05T20:55:36.318Z,99.90
2019-05-05T20:58:06.500Z,99.90
2019-05-05T21:00:36.645Z,99.90
2019-05-05T21:03:06.939Z,99.90
2019-05-05T21:05:37.006Z,99.90
2019-05-05T21:08:07.199Z,99.90
2019-05-05T21:10:37.892Z,99.90
2019-05-05T21:13:09.041Z,99.90
2019-05-05T21:15:39.294Z,99.90
2019-05-05T21:18:09.341Z,99.90
2019-05-05T21:20:39.387Z,99.90
2019-05-05T21:23:14.494Z,99.90
2019-05-05T21:25:51.303Z,99.90
2019-05-05T21:28:21.397Z,99.90
2019-05-05T21:30:53.800Z,99.90
2019-05-05T21:33:24.019Z,99.90
2019-05-05T21:35:55.101Z,99.90
2019-05-05T21:38:25.355Z,99.90
2019-05-05T21:40:55.485Z,99.90
2019-05-05T21:43:25.734Z,99.90
2019-05-05T21:45:55.800Z,99.90
2019-05-05T21:48:26.111Z,99.90
2019-05-05T21:51:04.679Z,99.90
2019-05-05T21:53:41.513Z,99.90
2019-05-05T21:56:39.990Z,99.90
2019-05-05T21:59:10.093Z,99.90
2019-05-05T22:01:41.113Z,99.90
2019-05-05T22:04:13.169Z,99.90
2019-05-05T22:06:43.218Z,99.90
2019-05-05T22:09:14.684Z,99.90
2019-05-05T22:11:44.894Z,99.90
2019-05-05T22:14:15.330Z,99.90
2019-05-05T22:16:45.400Z,99.90
2019-05-05T22:19:16.522Z,99.90
2019-05-05T22:21:54.566Z,99.90
2019-05-05T22:24:26.730Z,99.90
2019-05-05T22:26:56.856Z,99.90
2019-05-05T22:29:26.995Z,99.90
2019-05-05T22:31:57.236Z,99.90
2019-05-05T22:34:27.379Z,99.90
2019-05-05T22:36:57.796Z,99.90
2019-05-05T22:39:27.930Z,99.90
2019-05-05T22:41:58.047Z,99.90
2019-05-05T22:44:28.098Z,99.90
2019-05-05T22:46:58.137Z,99.90
2019-05-05T22:49:28.316Z,99.90
2019-05-05T22:51:58.419Z,99.90
2019-05-05T22:54:28.479Z,99.90
2019-05-05T22:56:59.064Z,99.90
2019-05-05T22:59:29.150Z,99.90
2019-05-05T23:01:59.335Z,99.90
2019-05-05T23:04:58.917Z,99.90
2019-05-05T23:07:30.992Z,99.90
2019-05-05T23:10:01.052Z,99.90
2019-05-05T23:12:31.101Z,99.90
2019-05-05T23:15:01.126Z,99.90
2019-05-05T23:17:54.212Z,99.90
2019-05-05T23:21:07.573Z,99.90
2019-05-05T23:23:56.005Z,99.90
2019-05-05T23:26:25.898Z,99.90
2019-05-05T23:28:55.930Z,99.90
2019-05-05T23:31:26.031Z,99.90
2019-05-05T23:33:56.078Z,99.90
2019-05-05T23:36:26.088Z,99.90
2019-05-05T23:38:56.801Z,99.90
2019-05-05T23:41:26.840Z,99.90
2019-05-05T23:43:56.975Z,99.90
2019-05-05T23:46:27.080Z,99.90
2019-05-05T23:48:57.132Z,99.90
2019-05-05T23:51:27.157Z,99.90
2019-05-05T23:53:58.489Z,99.90
2019-05-05T23:56:28.583Z,99.90
2019-05-05T23:58:58.721Z,99.90
